トビリシ の空港の天気 - METARとTAF

トビリシ国際空港 ( UGTB / TBS ) - ジョージア トビリシ
飛行場実況気象(Metar)
観測時間11/27 12:30 GET (11/27 08:30 UTC)
風向・風速西北西 16m/s 瞬間風速23m/s
視程10km以上
天気現象
なし
気温12℃
湿度58%
気圧1017hPa
METARUGTB 270830Z 30032G44KT CAVOK 12/04 Q1017 NOSIG
過去の天気等 Google飛行場航空写真 Wunderground天気予報

過去48時間のMETAR

飛行場予報(TAF)
発表時間: 11/27 09:00 GET (11/27 05:00 UTC)
予報対象時間: 27日10時 GET ~ 28日10時 GET
風向・風速北西 15m/s
視程10km以上
全天の4割程度の雲 雲底高度 1070m
27日11時 GET ~ 27日13時 GET に徐々に
なし
27日20時 GET ~ 28日4時 GET に一時的に
風向・風速北西 9m/s
28日4時 GET ~ 28日7時 GET に徐々に
風向・風速北西 8m/s
TAF UGTB 270500Z 2706/2806 32029KT 9999 SCT035 TX13/2712Z TN06/2804Z
BECMG 2707/2709 NSC
TEMPO 2716/2724 32018KT
BECMG 2800/2803 31015KT